»·PEaware :: N7345R KOLM-KOTH

N7345R :: KOLM-KOTH

FLIGHT INFORMATION

Flight Status: Arrived
Operator: Privately registered:
United States
More flights under this callsign
Pilot: Chuck O. (4337)
Aircraft: BEECH AIRCRAFT BARON
(BE55)
More flights by this aircraft type
Origin: KOLM Olympia
United States
Destination: KOTH North Bend Mun
United States
More flights between these airports :: More routes between these airports
Route: CETRA V165 UBG V287 OTH
File this flight plan on PilotEdge
Remarks: Req R17 YELM3
Altitude:
(Current/Filed)
8,000ft
Speed:
(Current/Filed)
180kts
Departed: 12-Apr-18 11:17 AM
Arrived: 12-Apr-18 12:50 PM
Distance/Time
Traveled:
221nm/1:33
Distance/Time
To Go:
Arrived

Flight Plot

Page will automatically refresh every two minutes.

Flight plan parsing failed; only flown route is shown


Map Options




Map Legend


Flown Route
Filed Route
Departure Airport
Arrival Airport
Navaid (VOR, NDB)
Fix

Horizontal Profiles

Position Reports

Time Latitude Longitude Heading Altitude Ground
Speed
12-Apr-18 11:02 46.976104 -122.899858 102 200ft 0kts
12-Apr-18 11:03 46.976104 -122.899858 102 200ft 0kts
12-Apr-18 11:04 46.976104 -122.899858 102 200ft 0kts
12-Apr-18 11:05 46.976104 -122.899858 102 200ft 0kts
12-Apr-18 11:06 46.976104 -122.899858 102 200ft 0kts
12-Apr-18 11:07 46.976104 -122.899858 102 200ft 0kts
12-Apr-18 11:08 46.976104 -122.899858 102 200ft 0kts
12-Apr-18 11:09 46.976104 -122.899858 102 200ft 0kts
12-Apr-18 11:10 46.975993 -122.900028 274 200ft 2kts
12-Apr-18 11:11 46.975995 -122.900056 274 200ft 0kts
12-Apr-18 11:12 46.975995 -122.900059 274 200ft 0kts
12-Apr-18 11:13 46.976190 -122.901498 278 200ft 0kts
12-Apr-18 11:14 46.976191 -122.901500 278 200ft 0kts
12-Apr-18 11:15 46.975947 -122.902459 189 200ft 12kts
12-Apr-18 11:16 46.953073 -122.905974 149 964ft 109kts
12-Apr-18 11:17 46.953149 -122.861252 76 2218ft 125kts
12-Apr-18 11:18 46.962882 -122.806174 77 2989ft 157kts
12-Apr-18 11:19 46.974043 -122.736991 77 3259ft 177kts
12-Apr-18 11:20 46.960520 -122.683920 166 4045ft 150kts
12-Apr-18 11:21 46.922555 -122.689978 232 4787ft 139kts
12-Apr-18 11:22 46.902581 -122.734636 229 5773ft 125kts
12-Apr-18 11:23 46.878461 -122.771914 227 6777ft 127kts
12-Apr-18 11:24 46.854214 -122.808641 228 7769ft 123kts
12-Apr-18 11:25 46.827735 -122.848851 228 8018ft 153kts
12-Apr-18 11:26 46.796496 -122.896131 228 8013ft 168kts
12-Apr-18 11:27 46.764301 -122.944715 228 8015ft 164kts
12-Apr-18 11:28 46.732519 -122.992320 224 8019ft 166kts
12-Apr-18 11:29 46.687509 -123.012427 200 8021ft 171kts
12-Apr-18 11:30 46.641524 -123.030359 200 8022ft 174kts
12-Apr-18 11:31 46.594139 -123.048648 200 8019ft 174kts
12-Apr-18 11:32 46.549262 -123.065887 200 8016ft 158kts
12-Apr-18 11:33 46.509519 -123.081107 201 8015ft 135kts
12-Apr-18 11:34 46.476692 -123.093600 203 8008ft 107kts
12-Apr-18 11:35 46.452886 -123.102274 202 7807ft 76kts
12-Apr-18 11:36 46.429025 -123.106370 188 7965ft 116kts
12-Apr-18 11:37 46.391394 -123.107875 188 8191ft 175kts
12-Apr-18 11:38 46.339140 -123.103200 181 8034ft 190kts
12-Apr-18 11:39 46.286460 -123.096158 181 8002ft 189kts
12-Apr-18 11:40 46.234333 -123.089441 181 8005ft 188kts
12-Apr-18 11:41 46.182142 -123.082759 181 8009ft 187kts
12-Apr-18 11:42 46.130200 -123.076120 182 8012ft 187kts
12-Apr-18 11:43 46.077995 -123.069483 182 7952ft 189kts
12-Apr-18 11:44 46.025661 -123.062811 182 7953ft 187kts
12-Apr-18 11:45 45.973710 -123.056200 183 7955ft 187kts
12-Apr-18 11:46 45.921994 -123.049636 183 7959ft 186kts
12-Apr-18 11:47 45.870235 -123.043066 183 7963ft 186kts
12-Apr-18 11:48 45.818673 -123.036549 183 7966ft 186kts
12-Apr-18 11:49 45.767350 -123.030080 183 7968ft 186kts
12-Apr-18 11:50 45.715536 -123.023561 183 7973ft 186kts
12-Apr-18 11:51 45.663842 -123.017068 183 7975ft 186kts
12-Apr-18 11:52 45.612928 -123.010684 183 7978ft 186kts
12-Apr-18 11:53 45.561321 -123.004226 183 7979ft 186kts
12-Apr-18 11:54 45.509564 -122.997763 183 7980ft 186kts
12-Apr-18 11:55 45.457748 -122.991296 183 7983ft 186kts
12-Apr-18 11:56 45.406027 -122.984877 182 7991ft 186kts
12-Apr-18 11:57 45.354376 -122.979079 190 7997ft 182kts
12-Apr-18 11:58 45.309956 -123.006280 209 8023ft 174kts
12-Apr-18 11:59 45.265519 -123.034245 210 8022ft 175kts
12-Apr-18 12:00 45.220924 -123.062550 210 8023ft 176kts
12-Apr-18 12:01 45.175986 -123.091075 210 8021ft 177kts
12-Apr-18 12:02 45.130857 -123.119657 210 8022ft 177kts
12-Apr-18 12:03 45.085266 -123.148468 210 7980ft 179kts
12-Apr-18 12:04 45.039791 -123.177122 210 7986ft 178kts
12-Apr-18 12:05 44.994444 -123.205662 210 7992ft 178kts
12-Apr-18 12:06 44.948807 -123.234279 210 7996ft 179kts
12-Apr-18 12:07 44.903331 -123.262764 210 7998ft 179kts
12-Apr-18 12:08 44.857858 -123.291208 210 8009ft 179kts
12-Apr-18 12:09 44.812076 -123.319813 210 7959ft 181kts
12-Apr-18 12:10 44.766058 -123.348484 210 7952ft 180kts
12-Apr-18 12:11 44.720290 -123.376971 210 7956ft 180kts
12-Apr-18 12:12 44.674455 -123.405470 210 7958ft 180kts
12-Apr-18 12:13 44.628685 -123.433839 210 7977ft 179kts
12-Apr-18 12:14 44.582739 -123.462286 210 7979ft 180kts
12-Apr-18 12:15 44.536903 -123.490616 210 7983ft 180kts
12-Apr-18 12:16 44.491031 -123.518919 211 7987ft 180kts
12-Apr-18 12:17 44.444924 -123.547319 211 7992ft 180kts
12-Apr-18 12:18 44.406578 -123.570899 211 7994ft 181kts
12-Apr-18 12:19 44.360456 -123.599218 211 7998ft 181kts
12-Apr-18 12:20 44.314551 -123.627355 211 8000ft 181kts
12-Apr-18 12:21 44.268305 -123.655662 211 8003ft 181kts
12-Apr-18 12:22 44.222282 -123.683662 211 8005ft 180kts
12-Apr-18 12:23 44.176243 -123.711727 211 8008ft 180kts
12-Apr-18 12:24 44.122662 -123.744348 211 8015ft 180kts
12-Apr-18 12:25 44.084256 -123.767691 211 8020ft 180kts
12-Apr-18 12:26 44.038275 -123.795591 211 8022ft 180kts
12-Apr-18 12:27 43.992185 -123.823509 211 8024ft 181kts
12-Apr-18 12:28 43.945969 -123.851453 211 8038ft 180kts
12-Apr-18 12:29 43.899767 -123.879366 211 7935ft 186kts
12-Apr-18 12:30 43.851978 -123.908049 210 7437ft 187kts
12-Apr-18 12:31 43.804769 -123.936349 211 6840ft 180kts
12-Apr-18 12:32 43.759033 -123.963819 211 6239ft 178kts
12-Apr-18 12:33 43.714802 -123.990288 211 6048ft 165kts
12-Apr-18 12:34 43.673429 -124.015058 212 6056ft 159kts
12-Apr-18 12:35 43.632829 -124.039320 211 6063ft 158kts
12-Apr-18 12:36 43.592356 -124.063492 211 6000ft 162kts
12-Apr-18 12:37 43.548772 -124.089565 210 5369ft 174kts
12-Apr-18 12:38 43.504317 -124.115965 210 4725ft 173kts
12-Apr-18 12:39 43.460201 -124.142154 210 4129ft 171kts
12-Apr-18 12:40 43.417115 -124.135535 126 3990ft 191kts
12-Apr-18 12:41 43.397047 -124.074059 153 3989ft 168kts
12-Apr-18 12:42 43.375036 -124.030096 53 3788ft 156kts
12-Apr-18 12:43 43.406078 -124.036381 304 3093ft 124kts
12-Apr-18 12:44 43.413168 -124.079224 270 2580ft 108kts
12-Apr-18 12:45 43.414200 -124.118590 270 2588ft 101kts
12-Apr-18 12:46 43.415225 -124.157456 269 2588ft 102kts
12-Apr-18 12:47 43.416972 -124.197323 288 1934ft 108kts
12-Apr-18 12:48 43.426461 -124.229781 246 340ft 84kts
12-Apr-18 12:49 43.418649 -124.250987 238 11ft 24kts
12-Apr-18 12:50 43.417589 -124.251605 152 10ft 0kts
12-Apr-18 12:51 43.417588 -124.251604 152 10ft 0kts
12-Apr-18 12:52 43.418087 -124.249552 56 10ft 27kts
12-Apr-18 12:53 43.416002 -124.244572 150 10ft 13kts
12-Apr-18 12:54 43.413799 -124.244192 282 10ft 8kts
12-Apr-18 12:55 43.413995 -124.244421 70 10ft 0kts
12-Apr-18 12:56 43.413995 -124.244421 70 10ft 0kts

Navigation Log

Ident Type
Flight plan parsing failed, navigation log unavailable